Time;durP1;ratioP1;P1;durP2;ratioP2;P2;SDS_P1;SDS_P2;PMS_P1;PMS_P2;Temp;Humidity;BMP_temperature;BMP_pressure;BME280_temperature;BME280_humidity;BME280_pressure;Samples;Min_cycle;Max_cycle;Signal;HPM_P1;HPM_P2
2023/05/13 00:01:53;;;;;;;7.57;3.05;;;12.60;99.90;;;;;;4953051;28;20229;-76
2023/05/13 00:04:20;;;;;;;7.47;3.45;;;12.60;99.90;;;;;;4953954;28;20138;-76
2023/05/13 00:06:47;;;;;;;6.88;2.95;;;12.60;99.90;;;;;;4964844;28;20107;-77
2023/05/13 00:09:14;;;;;;;11.88;3.83;;;12.60;99.90;;;;;;4968970;28;20055;-77
2023/05/13 00:11:42;;;;;;;10.52;3.22;;;12.50;99.90;;;;;;4952800;28;20054;-77
2023/05/13 00:14:10;;;;;;;6.38;3.38;;;12.50;99.90;;;;;;4952508;29;20058;-77
2023/05/13 00:16:38;;;;;;;6.60;3.92;;;12.50;99.90;;;;;;4953463;28;20070;-77
2023/05/13 00:19:06;;;;;;;6.97;4.22;;;12.50;99.90;;;;;;4936471;29;20146;-77
2023/05/13 00:21:34;;;;;;;5.93;3.55;;;12.40;99.90;;;;;;4951553;28;20114;-76
2023/05/13 00:24:01;;;;;;;6.53;3.63;;;12.40;99.90;;;;;;4954081;28;20162;-71
2023/05/13 00:26:28;;;;;;;6.28;3.40;;;12.40;99.90;;;;;;4953227;28;20527;-71
2023/05/13 00:28:56;;;;;;;8.10;3.85;;;12.40;99.90;;;;;;4953286;29;20564;-71
2023/05/13 00:31:23;;;;;;;6.18;3.10;;;12.40;99.90;;;;;;4953072;29;20423;-71
2023/05/13 00:33:50;;;;;;;5.63;3.20;;;12.40;99.90;;;;;;4952215;28;20094;-77
2023/05/13 00:36:18;;;;;;;7.55;3.45;;;12.40;99.90;;;;;;4951958;28;20469;-77
2023/05/13 00:38:46;;;;;;;4.70;3.40;;;12.40;99.90;;;;;;4939302;29;20055;-77
2023/05/13 00:41:13;;;;;;;6.70;3.38;;;12.40;99.90;;;;;;4952832;28;20090;-75
2023/05/13 00:43:40;;;;;;;13.05;3.92;;;12.30;99.90;;;;;;4951104;28;20074;-77
2023/05/13 00:46:07;;;;;;;7.95;3.47;;;12.30;99.90;;;;;;4951675;29;20114;-77
2023/05/13 00:48:35;;;;;;;5.78;3.17;;;12.30;99.90;;;;;;4935250;29;20504;-77
2023/05/13 00:51:02;;;;;;;4.50;3.40;;;12.30;99.90;;;;;;4948266;28;20052;-77
2023/05/13 00:53:33;;;;;;;6.32;3.10;;;12.20;99.90;;;;;;4916848;29;20055;-77
2023/05/13 00:56:00;;;;;;;6.35;3.35;;;12.20;99.90;;;;;;4941535;28;20050;-76
2023/05/13 00:58:28;;;;;;;13.88;3.50;;;12.20;99.90;;;;;;4967855;28;20066;-76
2023/05/13 01:01:06;;;;;;;11.23;3.47;;;12.20;99.90;;;;;;4932413;29;20043;-77
2023/05/13 01:03:38;;;;;;;4.28;3.17;;;12.20;99.90;;;;;;4940758;28;20420;-77
2023/05/13 01:06:08;;;;;;;;;;;12.20;99.90;;;;;;4951629;29;20047;-76
2023/05/13 01:08:43;;;;;;;5.43;3.22;;;12.20;99.90;;;;;;4953122;28;19926;-77
2023/05/13 01:11:17;;;;;;;7.57;3.80;;;12.20;99.90;;;;;;4952790;28;20094;-76
2023/05/13 01:13:49;;;;;;;8.43;3.42;;;12.20;99.90;;;;;;4951768;29;20051;-76
2023/05/13 01:16:22;;;;;;;4.57;3.35;;;12.20;99.90;;;;;;4947874;28;20081;-76
2023/05/13 01:18:53;;;;;;;9.77;3.72;;;12.20;99.90;;;;;;4948559;29;20056;-76
2023/05/13 01:21:26;;;;;;;13.05;3.90;;;12.10;99.90;;;;;;4945702;28;20059;-77
2023/05/13 01:23:54;;;;;;;10.60;3.25;;;12.10;99.90;;;;;;4950880;29;20051;-71
2023/05/13 01:26:24;;;;;;;5.90;3.75;;;12.10;99.90;;;;;;4951359;28;20047;-71
2023/05/13 01:28:51;;;;;;;6.40;3.30;;;12.10;99.90;;;;;;4951718;29;20152;-70
2023/05/13 01:31:19;;;;;;;7.78;3.38;;;12.10;99.90;;;;;;4967474;28;20424;-71
2023/05/13 01:33:47;;;;;;;4.65;3.80;;;12.10;99.90;;;;;;4934735;29;20095;-71
2023/05/13 01:36:16;;;;;;;7.80;3.72;;;12.10;99.90;;;;;;4951516;29;20047;-71
2023/05/13 01:38:45;;;;;;;10.13;3.75;;;12.10;99.90;;;;;;4935501;29;20057;-76
2023/05/13 01:41:13;;;;;;;9.27;3.78;;;12.10;99.90;;;;;;4948063;28;20048;-76
2023/05/13 01:43:40;;;;;;;13.43;3.90;;;12.10;99.90;;;;;;4950047;29;20055;-76
2023/05/13 01:46:12;;;;;;;7.70;3.67;;;12.10;99.90;;;;;;4935597;29;20053;-77
2023/05/13 01:48:39;;;;;;;10.27;3.95;;;12.10;99.90;;;;;;4952893;28;20059;-77
2023/05/13 01:51:07;;;;;;;15.65;5.88;;;12.10;99.90;;;;;;4952194;28;20102;-76
2023/05/13 01:53:34;;;;;;;9.68;4.50;;;12.20;99.90;;;;;;4952786;28;20051;-76
2023/05/13 01:56:03;;;;;;;10.55;4.10;;;12.20;99.90;;;;;;4952330;28;20449;-76
2023/05/13 01:58:30;;;;;;;10.32;4.68;;;12.20;99.90;;;;;;4951174;29;20066;-76
2023/05/13 02:00:57;;;;;;;7.35;4.32;;;12.20;99.90;;;;;;4966897;28;20062;-76
2023/05/13 02:03:25;;;;;;;6.97;4.47;;;12.20;99.90;;;;;;4954095;28;20063;-76
2023/05/13 02:05:53;;;;;;;8.48;4.07;;;12.20;99.90;;;;;;4951634;28;20051;-76
2023/05/13 02:08:20;;;;;;;5.53;3.63;;;12.20;99.90;;;;;;4951674;28;20067;-76
2023/05/13 02:10:55;;;;;;;10.95;4.00;;;12.20;99.90;;;;;;4956872;28;20055;-76
2023/05/13 02:13:23;;;;;;;9.00;3.47;;;12.20;99.90;;;;;;4955944;28;20584;-76
2023/05/13 02:15:51;;;;;;;11.65;3.90;;;12.20;99.90;;;;;;4951110;28;20143;-77
2023/05/13 02:18:18;;;;;;;8.07;3.80;;;12.20;99.90;;;;;;4939083;29;20420;-77
2023/05/13 02:21:06;;;;;;;7.32;3.85;;;12.30;99.90;;;;;;4932546;29;20058;-77
2023/05/13 02:23:33;;;;;;;8.20;3.80;;;12.40;99.90;;;;;;4954512;28;20086;-76
2023/05/13 02:26:02;;;;;;;5.93;3.47;;;12.40;99.90;;;;;;4950929;28;20421;-75
2023/05/13 02:28:31;;;;;;;6.85;4.57;;;12.50;99.90;;;;;;4947358;29;20508;-77
2023/05/13 02:30:58;;;;;;;7.25;3.15;;;12.70;99.90;;;;;;4954132;29;20397;-77
2023/05/13 02:33:26;;;;;;;5.50;3.67;;;12.80;99.90;;;;;;4954249;29;20055;-76
2023/05/13 02:35:53;;;;;;;5.28;4.28;;;12.80;99.90;;;;;;4950741;29;20040;-76
2023/05/13 02:38:21;;;;;;;11.80;4.25;;;12.90;99.90;;;;;;4953483;28;20055;-76
2023/05/13 02:40:48;;;;;;;8.20;3.70;;;12.90;99.90;;;;;;4950881;28;20146;-76
2023/05/13 02:43:15;;;;;;;8.05;3.40;;;13.00;99.90;;;;;;4934797;29;20576;-76
2023/05/13 02:45:54;;;;;;;6.22;4.15;;;13.00;99.90;;;;;;4928038;29;20058;-70
2023/05/13 02:48:21;;;;;;;11.48;4.50;;;13.00;99.90;;;;;;4955513;28;20443;-72
2023/05/13 02:50:49;;;;;;;13.73;3.88;;;13.00;99.90;;;;;;4958302;28;20464;-71
2023/05/13 02:53:17;;;;;;;6.95;3.63;;;13.00;99.90;;;;;;4953498;28;20061;-71
2023/05/13 02:55:50;;;;;;;4.50;3.65;;;13.10;99.90;;;;;;4961288;28;20409;-70
2023/05/13 02:58:18;;;;;;;9.75;3.67;;;13.20;99.90;;;;;;4955199;28;20508;-71
2023/05/13 03:00:47;;;;;;;4.93;3.67;;;13.20;99.90;;;;;;4953777;28;20055;-71
2023/05/13 03:03:15;;;;;;;7.82;3.97;;;13.20;99.90;;;;;;4953766;29;20409;-71
2023/05/13 03:05:42;;;;;;;7.70;3.47;;;13.20;99.90;;;;;;4954283;28;20051;-71
2023/05/13 03:08:10;;;;;;;33.08;5.78;;;13.20;99.90;;;;;;4953700;29;20058;-71
2023/05/13 03:10:38;;;;;;;8.93;4.03;;;13.30;99.90;;;;;;4953575;28;20520;-70
2023/05/13 03:13:06;;;;;;;14.27;4.03;;;13.20;99.90;;;;;;4951636;28;20505;-71
2023/05/13 03:15:33;;;;;;;10.00;3.92;;;13.10;99.90;;;;;;4968498;28;20047;-71
2023/05/13 03:18:01;;;;;;;8.77;4.05;;;13.10;99.90;;;;;;4969442;28;20055;-71
2023/05/13 03:20:30;;;;;;;4.70;3.60;;;13.00;99.90;;;;;;4948427;29;20492;-70
2023/05/13 03:22:58;;;;;;;7.97;4.00;;;12.90;99.90;;;;;;4956968;28;20060;-70
2023/05/13 03:25:25;;;;;;;7.28;4.03;;;12.90;99.90;;;;;;4954501;28;20098;-73
2023/05/13 03:27:57;;;;;;;10.82;4.45;;;12.90;99.90;;;;;;4969669;28;20047;-73
2023/05/13 03:30:28;;;;;;;6.10;3.90;;;12.90;99.90;;;;;;4937156;29;20043;-73
2023/05/13 03:33:13;;;;;;;14.38;4.43;;;12.80;99.90;;;;;;4952725;29;20089;-70
2023/05/13 03:35:42;;;;;;;8.52;4.20;;;12.80;99.90;;;;;;4937137;29;20062;-72
2023/05/13 03:38:09;;;;;;;7.68;4.03;;;12.80;99.90;;;;;;4954176;28;20436;-70
2023/05/13 03:40:41;;;;;;;7.88;4.00;;;12.80;99.90;;;;;;4952391;28;20055;-72
2023/05/13 03:43:09;;;;;;;6.85;4.00;;;12.90;99.90;;;;;;4969037;28;20078;-72
2023/05/13 03:45:38;;;;;;;8.50;3.90;;;13.00;99.90;;;;;;4949496;28;20046;-72
2023/05/13 03:48:09;;;;;;;11.45;4.07;;;13.10;99.90;;;;;;4949681;29;20553;-71
2023/05/13 03:50:36;;;;;;;12.27;4.35;;;13.20;99.90;;;;;;4947734;29;20134;-71
2023/05/13 03:53:05;;;;;;;7.43;4.85;;;13.30;99.90;;;;;;4951701;29;20051;-70
2023/05/13 03:55:35;;;;;;;6.38;4.55;;;13.30;99.90;;;;;;4952845;29;20142;-71
2023/05/13 03:58:12;;;;;;;8.50;4.30;;;13.30;99.90;;;;;;4952289;29;20098;-71
2023/05/13 04:00:39;;;;;;;11.55;4.70;;;13.30;99.90;;;;;;4942512;29;20532;-71
2023/05/13 04:03:07;;;;;;;13.30;4.25;;;13.50;99.90;;;;;;4967760;28;20543;-71
2023/05/13 04:05:34;;;;;;;5.63;4.20;;;13.60;99.90;;;;;;4954111;28;20504;-72
2023/05/13 04:08:01;;;;;;;7.32;4.35;;;13.80;99.90;;;;;;4951446;28;20055;-71
2023/05/13 04:10:30;;;;;;;8.40;5.03;;;13.80;99.90;;;;;;4958878;28;20504;-71
2023/05/13 04:12:58;;;;;;;6.15;4.22;;;13.90;99.90;;;;;;4952482;29;20047;-71
2023/05/13 04:15:26;;;;;;;7.85;4.85;;;14.00;99.90;;;;;;4951809;28;20139;-72
2023/05/13 04:17:53;;;;;;;6.20;4.28;;;14.10;99.90;;;;;;4960721;28;20051;-70
2023/05/13 04:20:20;;;;;;;9.75;4.70;;;14.20;99.90;;;;;;4953443;28;20058;-70
2023/05/13 04:22:48;;;;;;;10.38;4.00;;;14.30;99.90;;;;;;4953323;28;20058;-71
2023/05/13 04:25:15;;;;;;;7.80;4.25;;;14.40;99.90;;;;;;4927204;28;20043;-71
2023/05/13 04:27:46;;;;;;;10.82;4.75;;;14.40;99.90;;;;;;4950749;29;20090;-71
2023/05/13 04:30:20;;;;;;;7.05;4.30;;;14.40;99.90;;;;;;4934284;29;20090;-70
2023/05/13 04:32:48;;;;;;;7.55;4.10;;;14.40;99.90;;;;;;4951351;29;20059;-71
2023/05/13 04:35:16;;;;;;;10.68;5.20;;;14.40;99.90;;;;;;4950106;28;20086;-70
2023/05/13 04:37:46;;;;;;;12.60;5.05;;;14.40;99.90;;;;;;4932769;29;20480;-70
2023/05/13 04:40:17;;;;;;;9.25;4.72;;;14.40;99.90;;;;;;4939748;28;20089;-71
2023/05/13 04:42:45;;;;;;;9.90;4.13;;;14.40;99.90;;;;;;4963383;28;20058;-71
2023/05/13 04:45:13;;;;;;;10.68;3.92;;;14.40;99.90;;;;;;4942199;28;20134;-70
2023/05/13 04:47:42;;;;;;;15.15;4.95;;;14.50;99.90;;;;;;4945597;29;20460;-71
2023/05/13 04:50:10;;;;;;;12.82;4.63;;;14.50;99.90;;;;;;4951702;29;20488;-74
2023/05/13 04:52:38;;;;;;;7.35;4.25;;;14.60;99.90;;;;;;4963653;28;20043;-71
2023/05/13 04:55:06;;;;;;;12.93;5.40;;;14.70;99.90;;;;;;4946537;28;20382;-71
2023/05/13 04:57:33;;;;;;;8.82;4.95;;;14.80;99.90;;;;;;4941603;29;20058;-70
2023/05/13 05:00:02;;;;;;;10.65;4.43;;;15.00;99.90;;;;;;4939252;29;20513;-71
2023/05/13 05:02:35;;;;;;;10.18;4.50;;;15.20;99.90;;;;;;4950759;29;20508;-73
2023/05/13 05:05:02;;;;;;;10.50;4.68;;;15.40;99.90;;;;;;4934935;29;20517;-71
2023/05/13 05:07:31;;;;;;;14.02;5.07;;;15.40;99.90;;;;;;4950853;28;20055;-74
2023/05/13 05:09:59;;;;;;;7.10;5.18;;;15.50;99.90;;;;;;4946805;29;20099;-75
2023/05/13 05:12:26;;;;;;;10.35;4.85;;;15.60;99.90;;;;;;4943157;29;20058;-77
2023/05/13 05:14:53;;;;;;;7.32;4.45;;;15.70;99.90;;;;;;4966639;28;20051;-76
2023/05/13 05:17:22;;;;;;;11.18;4.35;;;15.80;99.90;;;;;;4965226;28;20052;-74
2023/05/13 05:19:49;;;;;;;10.55;5.03;;;16.00;99.90;;;;;;4952128;28;20055;-78
2023/05/13 05:22:16;;;;;;;9.13;4.22;;;16.10;99.90;;;;;;4952280;28;20117;-77
2023/05/13 05:24:47;;;;;;;9.10;4.50;;;16.30;99.90;;;;;;4947668;28;20636;-76
2023/05/13 05:27:14;;;;;;;7.85;5.20;;;16.50;99.90;;;;;;4944545;28;20054;-76
2023/05/13 05:29:42;;;;;;;10.35;4.68;;;16.70;99.90;;;;;;4932186;29;20432;-77
2023/05/13 05:32:09;;;;;;;10.60;5.00;;;16.90;99.90;;;;;;4949008;29;20047;-72
2023/05/13 05:34:38;;;;;;;13.80;4.80;;;17.20;99.90;;;;;;4951279;28;20051;-76
2023/05/13 05:37:05;;;;;;;13.80;4.72;;;17.10;99.90;;;;;;4950625;28;20067;-75
2023/05/13 05:39:35;;;;;;;11.13;4.68;;;17.10;99.90;;;;;;4950066;29;20047;-76
2023/05/13 05:42:02;;;;;;;10.18;4.75;;;17.70;99.90;;;;;;4953275;29;20043;-77
2023/05/13 05:44:30;;;;;;;15.73;5.00;;;18.40;99.90;;;;;;4936620;29;20062;-76
2023/05/13 05:46:58;;;;;;;9.35;4.60;;;19.10;99.90;;;;;;4965408;28;20633;-76
2023/05/13 05:49:25;;;;;;;13.05;5.80;;;19.60;98.10;;;;;;4950273;28;20050;-76
2023/05/13 05:51:54;;;;;;;10.85;5.65;;;20.00;96.60;;;;;;4952316;28;20055;-76
2023/05/13 05:54:22;;;;;;;12.07;5.00;;;20.50;94.50;;;;;;4968983;28;20425;-70
2023/05/13 05:56:49;;;;;;;14.38;5.05;;;20.90;92.00;;;;;;4968788;28;20468;-75
2023/05/13 05:59:16;;;;;;;9.77;4.80;;;21.40;89.60;;;;;;4954707;28;20059;-76
2023/05/13 06:01:45;;;;;;;10.13;5.45;;;21.70;86.10;;;;;;4966214;28;20054;-75
2023/05/13 06:04:12;;;;;;;12.75;5.20;;;22.10;83.80;;;;;;4955007;29;20047;-76
2023/05/13 06:06:39;;;;;;;12.02;5.38;;;22.30;82.30;;;;;;4970009;28;20086;-75
2023/05/13 06:09:08;;;;;;;12.80;5.88;;;22.60;80.00;;;;;;4969584;28;20047;-75
2023/05/13 06:11:35;;;;;;;16.20;5.82;;;22.90;79.70;;;;;;4954290;28;20098;-76
2023/05/13 06:14:04;;;;;;;11.68;4.72;;;23.10;76.70;;;;;;4936516;29;20049;-76
2023/05/13 06:16:31;;;;;;;17.02;5.65;;;23.40;75.10;;;;;;4947616;28;20527;-75
2023/05/13 06:19:00;;;;;;;14.48;5.30;;;23.70;73.00;;;;;;4954817;29;20051;-74
2023/05/13 06:21:28;;;;;;;16.33;5.50;;;24.00;71.30;;;;;;4947858;28;20083;-70
2023/05/13 06:23:55;;;;;;;17.10;5.70;;;24.20;69.60;;;;;;4961001;28;20130;-71
2023/05/13 06:26:24;;;;;;;14.82;6.18;;;24.30;70.30;;;;;;4953319;28;20055;-76
2023/05/13 06:28:52;;;;;;;12.68;5.10;;;24.40;67.80;;;;;;4955379;28;20542;-76
2023/05/13 06:31:19;;;;;;;11.32;5.38;;;24.40;67.30;;;;;;4950207;29;20071;-70
2023/05/13 06:33:47;;;;;;;29.55;8.00;;;24.70;68.10;;;;;;4928062;29;20103;-71
2023/05/13 06:36:14;;;;;;;12.27;5.03;;;24.90;66.50;;;;;;4948593;28;20070;-70
2023/05/13 06:38:42;;;;;;;13.05;6.20;;;25.10;64.80;;;;;;4954986;28;20074;-70
2023/05/13 06:41:09;;;;;;;14.60;6.20;;;25.40;63.90;;;;;;4969396;28;20051;-71
2023/05/13 06:43:40;;;;;;;13.65;5.00;;;25.60;64.20;;;;;;4952317;28;20047;-70
2023/05/13 06:46:21;;;;;;;14.95;5.22;;;25.70;62.10;;;;;;4951420;28;20503;-71
2023/05/13 06:48:51;;;;;;;19.52;5.25;;;26.00;62.10;;;;;;4951702;28;20085;-71
2023/05/13 06:51:18;;;;;;;15.40;5.40;;;26.00;60.40;;;;;;4958150;28;20492;-71
2023/05/13 06:53:46;;;;;;;12.25;5.43;;;26.30;60.20;;;;;;4953370;28;20043;-70
2023/05/13 06:56:13;;;;;;;20.52;5.97;;;26.50;59.70;;;;;;4954965;28;20067;-71
2023/05/13 06:58:41;;;;;;;14.80;5.80;;;26.70;59.40;;;;;;4955286;28;20047;-70
2023/05/13 07:01:09;;;;;;;14.88;5.00;;;27.00;58.50;;;;;;4954285;28;20531;-71
2023/05/13 07:03:36;;;;;;;12.93;6.43;;;27.30;58.40;;;;;;4953550;29;20098;-70
2023/05/13 07:06:04;;;;;;;17.73;6.53;;;27.40;57.80;;;;;;4959765;28;20059;-71
2023/05/13 07:08:31;;;;;;;14.98;5.82;;;27.50;57.00;;;;;;4955069;28;20051;-71
2023/05/13 07:10:58;;;;;;;15.98;5.43;;;27.70;56.40;;;;;;4960325;28;20047;-71
2023/05/13 07:13:25;;;;;;;13.27;5.07;;;27.60;57.90;;;;;;4953486;28;20054;-71
2023/05/13 07:15:54;;;;;;;13.02;5.38;;;27.70;56.70;;;;;;4969251;28;20059;-71
2023/05/13 07:18:22;;;;;;;10.77;5.32;;;27.90;56.20;;;;;;4953332;29;20111;-71
2023/05/13 07:20:49;;;;;;;11.77;5.78;;;28.20;55.80;;;;;;4952743;28;20051;-71
2023/05/13 07:23:17;;;;;;;11.95;5.03;;;28.40;56.10;;;;;;4954334;28;20575;-71
2023/05/13 07:25:44;;;;;;;16.05;5.72;;;28.50;54.40;;;;;;4954099;28;20051;-71
2023/05/13 07:28:11;;;;;;;13.00;5.55;;;28.80;54.80;;;;;;4952892;29;20523;-71
2023/05/13 07:30:40;;;;;;;13.15;6.13;;;28.90;54.20;;;;;;4949644;28;20134;-72
2023/05/13 07:33:08;;;;;;;15.90;5.35;;;29.10;53.60;;;;;;4935440;29;20094;-70
2023/05/13 07:35:36;;;;;;;9.88;5.38;;;29.40;52.90;;;;;;4939537;28;20043;-70
2023/05/13 07:38:04;;;;;;;13.23;5.75;;;29.70;53.70;;;;;;4953406;28;20051;-69
2023/05/13 07:40:31;;;;;;;14.40;5.13;;;30.00;52.30;;;;;;4954026;28;20051;-70
2023/05/13 07:42:58;;;;;;;12.68;5.13;;;30.10;51.70;;;;;;4953979;28;20110;-71
2023/05/13 07:45:26;;;;;;;16.20;4.97;;;30.20;51.20;;;;;;4954141;28;20071;-71
2023/05/13 07:47:53;;;;;;;14.27;5.25;;;30.30;51.70;;;;;;4953447;29;20086;-70
2023/05/13 07:50:22;;;;;;;13.18;5.65;;;30.40;50.80;;;;;;4954040;28;20043;-70
2023/05/13 07:52:50;;;;;;;12.95;5.03;;;30.60;51.40;;;;;;4954018;28;20508;-71
2023/05/13 07:55:18;;;;;;;13.05;4.97;;;30.70;49.90;;;;;;4953127;28;20053;-71
2023/05/13 07:57:45;;;;;;;9.82;4.72;;;30.90;49.60;;;;;;4952445;29;20051;-70
2023/05/13 08:00:14;;;;;;;19.35;5.20;;;30.90;50.30;;;;;;4953395;28;20062;-69
2023/05/13 08:02:42;;;;;;;20.77;4.63;;;30.70;49.80;;;;;;4953649;28;20055;-70
2023/05/13 08:05:11;;;;;;;18.52;5.35;;;30.90;50.70;;;;;;4953287;28;20047;-70
2023/05/13 08:07:39;;;;;;;10.55;5.78;;;30.80;50.00;;;;;;4954001;28;20075;-70
2023/05/13 08:10:08;;;;;;;11.70;4.40;;;31.00;49.90;;;;;;4952277;29;20054;-70
2023/05/13 08:12:35;;;;;;;11.52;5.70;;;31.10;50.00;;;;;;4953470;28;20051;-70
2023/05/13 08:15:03;;;;;;;14.90;5.93;;;31.30;50.50;;;;;;4953252;28;20137;-70
2023/05/13 08:17:34;;;;;;;;;;;31.60;49.30;;;;;;4954065;28;20062;-70
2023/05/13 08:20:02;;;;;;;11.00;4.68;;;31.70;48.30;;;;;;4953388;28;19930;-70
2023/05/13 08:22:32;;;;;;;9.95;4.43;;;31.70;49.40;;;;;;4967245;28;20047;-69
2023/05/13 08:25:02;;;;;;;12.32;4.38;;;32.10;49.50;;;;;;4949881;29;20125;-70
2023/05/13 08:27:32;;;;;;;11.30;4.70;;;32.40;48.20;;;;;;4953508;28;20043;-70
2023/05/13 08:29:59;;;;;;;12.93;4.85;;;32.40;47.00;;;;;;4953086;29;20157;-70
2023/05/13 08:32:26;;;;;;;11.70;3.97;;;32.40;48.10;;;;;;4952869;28;20516;-70
2023/05/13 08:34:54;;;;;;;12.00;4.90;;;32.50;48.80;;;;;;4953142;28;20568;-69
2023/05/13 08:37:21;;;;;;;10.65;4.35;;;32.80;46.80;;;;;;4967939;28;20534;-70
2023/05/13 08:39:48;;;;;;;7.38;3.88;;;33.10;45.70;;;;;;4953332;28;20608;-69
2023/05/13 08:42:21;;;;;;;14.13;4.28;;;33.50;46.10;;;;;;4967109;28;20501;-69
2023/05/13 08:44:49;;;;;;;9.68;4.65;;;33.80;45.80;;;;;;4953142;28;20110;-70
2023/05/13 08:47:23;;;;;;;12.98;4.43;;;33.90;45.90;;;;;;4951440;29;20109;-70
2023/05/13 08:49:51;;;;;;;13.55;4.25;;;33.80;45.30;;;;;;4953021;28;20059;-70
2023/05/13 08:52:21;;;;;;;9.60;3.58;;;33.90;45.90;;;;;;4949956;29;20097;-71
2023/05/13 08:54:49;;;;;;;13.80;4.07;;;33.90;45.90;;;;;;4951753;29;20098;-71
2023/05/13 08:57:18;;;;;;;22.23;4.03;;;34.00;45.40;;;;;;4952943;28;20052;-70
2023/05/13 08:59:45;;;;;;;12.48;4.32;;;34.00;44.30;;;;;;4952469;28;20102;-70
2023/05/13 09:02:13;;;;;;;13.30;4.15;;;34.10;44.40;;;;;;4952665;28;20047;-71
2023/05/13 09:04:43;;;;;;;12.50;4.25;;;34.10;44.80;;;;;;4953034;28;20055;-70
2023/05/13 09:07:10;;;;;;;11.70;4.28;;;34.10;44.30;;;;;;4950764;28;20054;-70
2023/05/13 09:09:38;;;;;;;16.33;3.97;;;34.30;44.00;;;;;;4943855;28;20043;-71
2023/05/13 09:12:06;;;;;;;9.35;4.07;;;34.40;43.70;;;;;;4943340;28;20051;-70
2023/05/13 09:14:35;;;;;;;15.48;4.50;;;34.60;43.70;;;;;;4941850;29;20047;-70
2023/05/13 09:17:02;;;;;;;13.77;4.03;;;34.80;42.90;;;;;;4930910;29;20509;-72
2023/05/13 09:19:29;;;;;;;12.57;3.88;;;35.00;41.90;;;;;;4948147;29;20077;-70
2023/05/13 09:21:57;;;;;;;6.85;3.92;;;34.40;41.90;;;;;;4949910;28;20059;-69
2023/05/13 09:24:24;;;;;;;12.35;4.38;;;34.10;42.80;;;;;;4950381;29;20059;-69
2023/05/13 09:26:52;;;;;;;12.43;4.20;;;34.20;43.50;;;;;;4949888;29;20402;-70
2023/05/13 09:29:24;;;;;;;9.30;3.40;;;34.20;43.20;;;;;;4936979;29;20582;-70
2023/05/13 09:31:56;;;;;;;12.48;4.13;;;34.20;43.90;;;;;;4952182;28;20106;-69
2023/05/13 09:34:29;;;;;;;8.80;3.90;;;34.40;42.40;;;;;;4952459;28;20047;-70
2023/05/13 09:36:58;;;;;;;5.80;3.22;;;34.60;42.70;;;;;;4949308;28;20062;-70
2023/05/13 09:39:26;;;;;;;8.23;3.55;;;34.60;42.20;;;;;;4952109;28;20118;-69
2023/05/13 09:41:54;;;;;;;12.70;4.03;;;34.80;42.20;;;;;;4951058;28;20098;-70
2023/05/13 09:44:22;;;;;;;6.95;3.65;;;35.10;42.90;;;;;;4958271;28;20082;-70
2023/05/13 09:46:53;;;;;;;8.52;3.63;;;35.20;42.20;;;;;;4947379;29;20074;-69
2023/05/13 09:49:23;;;;;;;7.43;3.77;;;35.40;40.70;;;;;;4944718;29;20074;-70
2023/05/13 09:51:50;;;;;;;8.77;4.55;;;34.50;40.60;;;;;;4945557;29;20055;-69
2023/05/13 09:54:18;;;;;;;9.90;4.82;;;33.10;42.00;;;;;;4942003;29;20484;-69
2023/05/13 09:56:46;;;;;;;8.00;3.60;;;31.80;43.60;;;;;;4943688;28;21106;-74
2023/05/13 09:59:16;;;;;;;12.02;3.70;;;30.70;44.70;;;;;;4944381;29;20047;-76
2023/05/13 10:01:45;;;;;;;9.80;3.45;;;30.60;45.90;;;;;;4943884;28;20093;-75
2023/05/13 10:04:14;;;;;;;11.48;4.47;;;30.80;46.20;;;;;;4949246;29;20055;-75
2023/05/13 10:06:45;;;;;;;8.65;4.30;;;31.10;45.10;;;;;;4947700;29;20146;-75
2023/05/13 10:09:14;;;;;;;16.77;4.70;;;31.00;45.10;;;;;;4936110;29;20546;-75
2023/05/13 10:11:44;;;;;;;10.73;3.70;;;31.20;45.30;;;;;;4951049;28;20055;-75
2023/05/13 10:14:11;;;;;;;7.80;3.65;;;31.80;45.80;;;;;;4950096;29;20098;-75
2023/05/13 10:16:40;;;;;;;12.07;3.88;;;32.70;44.60;;;;;;4951244;29;20055;-75
2023/05/13 10:19:08;;;;;;;10.45;3.15;;;33.60;43.60;;;;;;4950096;28;20045;-76
2023/05/13 10:21:38;;;;;;;6.78;4.28;;;34.30;43.30;;;;;;4951493;28;20058;-71
2023/05/13 10:24:07;;;;;;;4.97;3.67;;;34.80;42.50;;;;;;4954774;28;20090;-69
2023/05/13 10:26:35;;;;;;;5.55;3.80;;;35.20;42.30;;;;;;4955289;28;20102;-69
2023/05/13 10:29:02;;;;;;;8.88;4.10;;;35.70;42.20;;;;;;4938169;29;20062;-71
2023/05/13 10:31:30;;;;;;;9.43;3.42;;;36.20;42.10;;;;;;4945889;29;20043;-71
2023/05/13 10:33:59;;;;;;;12.57;3.25;;;36.70;40.60;;;;;;4943739;29;20114;-71
2023/05/13 10:37:01;;;;;;;6.15;2.63;;;37.20;40.60;;;;;;4951303;28;20117;-75
2023/05/13 10:39:38;;;;;;;;;;;37.50;40.00;;;;;;4953908;29;20057;-75
2023/05/13 10:42:41;;;;;;;5.50;2.60;;;37.60;40.70;;;;;;4953945;29;19973;-70
2023/05/13 10:45:09;;;;;;;5.75;2.65;;;37.40;39.10;;;;;;4948121;28;20562;-70
2023/05/13 10:47:37;;;;;;;5.57;2.50;;;37.60;39.00;;;;;;4953834;28;20142;-70
2023/05/13 10:50:06;;;;;;;3.92;2.50;;;37.80;38.60;;;;;;4953281;28;20070;-77
2023/05/13 10:52:47;;;;;;;4.82;2.83;;;37.90;39.30;;;;;;4954493;28;20031;-70
2023/05/13 10:55:17;;;;;;;5.55;2.67;;;37.60;38.70;;;;;;4954158;28;20062;-68
2023/05/13 10:58:04;;;;;;;8.07;5.25;;;37.60;39.00;;;;;;4953711;28;20062;-69
2023/05/13 11:00:32;;;;;;;5.07;2.63;;;37.70;37.80;;;;;;4951752;29;20055;-72
2023/05/13 11:03:09;;;;;;;3.92;2.53;;;37.80;37.80;;;;;;4953862;29;20058;-71
2023/05/13 11:05:39;;;;;;;5.45;2.55;;;38.00;37.60;;;;;;4953678;28;20070;-69
2023/05/13 11:08:08;;;;;;;6.53;2.38;;;37.90;37.00;;;;;;4952791;29;20082;-69
2023/05/13 11:10:35;;;;;;;9.18;2.75;;;37.90;37.90;;;;;;4950186;28;20063;-69
2023/05/13 11:13:21;;;;;;;5.15;2.60;;;38.00;37.60;;;;;;4943721;28;20168;-69
2023/05/13 11:15:50;;;;;;;5.72;2.40;;;38.00;37.00;;;;;;4945626;28;20059;-69
2023/05/13 11:18:19;;;;;;;8.07;2.40;;;37.10;37.20;;;;;;4947405;29;20059;-70
2023/05/13 11:20:48;;;;;;;4.95;2.80;;;37.10;37.40;;;;;;4950284;28;20504;-70
2023/05/13 11:23:21;;;;;;;2.83;2.22;;;37.30;37.10;;;;;;4953606;28;20039;-69
2023/05/13 11:26:10;;;;;;;5.97;2.72;;;37.70;37.00;;;;;;4953482;28;20055;-70
2023/05/13 11:28:58;;;;;;;6.10;2.80;;;38.20;36.60;;;;;;4942482;28;20048;-70
2023/05/13 11:31:28;;;;;;;4.85;2.80;;;38.00;36.60;;;;;;4952838;28;20102;-70
2023/05/13 11:34:09;;;;;;;8.50;2.63;;;36.90;37.40;;;;;;4951862;29;20388;-70
2023/05/13 11:36:39;;;;;;;8.00;2.53;;;36.60;37.50;;;;;;4950067;28;20090;-72
2023/05/13 11:39:13;;;;;;;7.03;2.22;;;37.10;37.40;;;;;;4950581;28;20118;-70
2023/05/13 11:41:42;;;;;;;5.43;2.50;;;37.70;36.50;;;;;;4952472;28;20089;-71
2023/05/13 11:44:11;;;;;;;4.82;1.95;;;38.20;36.00;;;;;;4951531;29;20062;-69
2023/05/13 11:46:48;;;;;;;9.52;3.17;;;38.60;35.60;;;;;;4945335;28;20412;-70
2023/05/13 11:49:39;;;;;;;6.65;2.80;;;39.10;35.60;;;;;;4948093;28;20069;-70
2023/05/13 11:52:09;;;;;;;10.85;2.42;;;39.70;34.40;;;;;;4949742;28;20055;-75
2023/05/13 11:54:47;;;;;;;6.78;2.60;;;40.00;34.70;;;;;;4946655;28;20098;-75
2023/05/13 11:57:18;;;;;;;5.93;2.30;;;39.70;33.70;;;;;;4942590;28;20051;-75
2023/05/13 11:59:50;;;;;;;4.70;2.28;;;39.30;34.20;;;;;;4941767;28;20078;-74
2023/05/13 12:02:21;;;;;;;4.50;2.47;;;39.20;34.30;;;;;;4951337;29;22462;-74
2023/05/13 12:04:48;;;;;;;7.30;2.65;;;39.30;34.90;;;;;;4953512;28;20058;-75
2023/05/13 12:07:20;;;;;;;3.20;2.13;;;39.40;34.80;;;;;;4951545;28;20053;-74
2023/05/13 12:09:49;;;;;;;2.65;2.13;;;39.50;34.20;;;;;;4943652;28;20043;-75
2023/05/13 12:12:25;;;;;;;5.65;2.20;;;39.60;34.50;;;;;;4946768;28;20032;-77
2023/05/13 12:15:02;;;;;;;4.82;2.15;;;39.80;34.30;;;;;;4948656;29;20066;-75
2023/05/13 12:17:35;;;;;;;6.97;2.40;;;39.70;34.60;;;;;;4935539;29;20059;-77
2023/05/13 12:20:08;;;;;;;5.05;3.83;;;39.80;34.40;;;;;;4950369;28;20094;-73
2023/05/13 12:22:38;;;;;;;5.90;2.10;;;39.90;34.50;;;;;;4949329;29;20126;-70
2023/05/13 12:25:36;;;;;;;10.00;3.42;;;40.00;34.30;;;;;;4946029;28;20057;-70
2023/05/13 12:28:08;;;;;;;4.63;2.90;;;39.80;34.40;;;;;;4949517;29;20091;-74
2023/05/13 12:30:36;;;;;;;3.67;2.10;;;39.50;34.90;;;;;;4948343;28;20043;-75
2023/05/13 12:33:11;;;;;;;3.60;2.10;;;38.80;34.90;;;;;;4951340;29;20043;-75
2023/05/13 12:35:42;;;;;;;5.32;2.47;;;38.70;34.60;;;;;;4934361;29;20051;-70
2023/05/13 12:38:15;;;;;;;2.88;2.05;;;38.50;34.80;;;;;;4947076;28;20074;-75
2023/05/13 12:40:46;;;;;;;5.82;2.20;;;38.70;34.90;;;;;;4951576;28;20055;-75
2023/05/13 12:43:15;;;;;;;3.95;2.25;;;39.00;34.80;;;;;;4953069;29;20058;-70
2023/05/13 12:45:45;;;;;;;5.38;1.95;;;39.20;35.10;;;;;;4952060;28;20055;-69
2023/05/13 12:48:13;;;;;;;8.93;2.20;;;39.40;34.40;;;;;;4951872;28;20149;-75
2023/05/13 12:50:40;;;;;;;5.60;2.40;;;39.30;34.00;;;;;;4952165;28;20043;-75
2023/05/13 12:53:07;;;;;;;4.63;2.28;;;39.20;33.80;;;;;;4943383;29;20091;-75
2023/05/13 12:55:38;;;;;;;4.68;2.65;;;39.10;34.30;;;;;;4940044;28;20145;-73